Eulalia, Pennsylvania
Current Conditions -  °F | °C
As of 8:56 PM on Saturday 25 Oct 2014 (Local Time) from KELZ Reporting Station
Few Clouds Few Clouds  
Wind Chill: 53°   Ceiling: Unl
Heat Index: 53°   Visibility: 10mi
Dew Point: 44°   Wind: 14mph
Humidity: 71%   Direction: 280°W
Pressure: 29.67"   Gusts: NA
Location:  41.7605°N, 77.9728°W
Report Text: KELZ 260056Z AUTO 28012KT 10SM FEW027 FEW055 12/07 A2967 RMK AO2 SLP051 T01170067
Loading
Personal Weather Stations






























Interactive Weather Map
Tropical Storm Tracking
New forecast layout! Learn more

10-Day Weather Forecast

Advertisements
Track Severe Weather on mobile